createdAt,value
2019-03-08T00:00:33.014Z,4.40
2019-03-08T00:01:38.528Z,4.20
2019-03-08T00:02:44.041Z,4.00
2019-03-08T00:03:49.544Z,5.00
2019-03-08T00:04:55.049Z,3.70
2019-03-08T00:06:00.576Z,4.50
2019-03-08T00:07:06.087Z,4.90
2019-03-08T00:08:11.581Z,5.70
2019-03-08T00:09:17.105Z,4.60
2019-03-08T00:10:22.607Z,4.80
2019-03-08T00:11:28.098Z,4.40
2019-03-08T00:12:33.618Z,5.20
2019-03-08T00:13:39.122Z,6.80
2019-03-08T00:14:44.632Z,6.90
2019-03-08T00:15:50.146Z,6.70
2019-03-08T00:16:55.662Z,5.60
2019-03-08T00:18:01.160Z,6.40
2019-03-08T00:19:06.669Z,4.40
2019-03-08T00:20:12.186Z,3.90
2019-03-08T00:21:17.696Z,6.30
2019-03-08T00:22:23.203Z,4.90
2019-03-08T00:23:28.710Z,4.30
2019-03-08T00:24:34.218Z,8.30
2019-03-08T00:25:39.745Z,6.40
2019-03-08T00:26:45.246Z,5.20
2019-03-08T00:27:50.784Z,4.60
2019-03-08T00:28:56.249Z,6.40
2019-03-08T00:30:01.763Z,5.50
2019-03-08T00:31:07.273Z,5.20
2019-03-08T00:32:12.779Z,5.40
2019-03-08T00:33:18.387Z,6.80
2019-03-08T00:34:23.821Z,6.30
2019-03-08T00:35:29.304Z,6.40
2019-03-08T00:36:34.830Z,6.70
2019-03-08T00:37:40.369Z,6.40
2019-03-08T00:38:45.835Z,6.50
2019-03-08T00:39:51.431Z,5.70
2019-03-08T00:40:56.856Z,7.30
2019-03-08T00:42:02.359Z,7.70
2019-03-08T00:43:07.868Z,5.70
2019-03-08T00:44:13.375Z,7.60
2019-03-08T00:45:18.889Z,5.50
2019-03-08T00:46:24.392Z,5.10
2019-03-08T00:47:29.903Z,5.70
2019-03-08T00:48:35.539Z,5.60
2019-03-08T00:49:40.925Z,6.20
2019-03-08T00:50:46.458Z,6.20
2019-03-08T00:51:51.938Z,3.70
2019-03-08T00:52:57.450Z,5.70
2019-03-08T00:54:02.954Z,4.10
2019-03-08T00:55:08.466Z,8.70
2019-03-08T00:56:13.967Z,5.30
2019-03-08T00:57:19.492Z,4.20
2019-03-08T00:58:24.988Z,4.50
2019-03-08T00:59:30.500Z,6.60
2019-03-08T01:00:36.005Z,5.80
2019-03-08T01:01:41.525Z,7.10
2019-03-08T01:02:47.025Z,5.30
2019-03-08T01:03:52.534Z,5.60
2019-03-08T01:04:58.059Z,6.60
2019-03-08T01:06:03.550Z,7.00
2019-03-08T01:07:09.059Z,5.00
2019-03-08T01:08:14.564Z,5.40
2019-03-08T01:09:20.090Z,5.90
2019-03-08T01:10:25.590Z,5.50
2019-03-08T01:11:31.093Z,5.90
2019-03-08T01:12:36.611Z,4.50
2019-03-08T01:13:42.111Z,6.80
2019-03-08T01:14:47.619Z,6.00
2019-03-08T01:15:53.130Z,7.20
2019-03-08T01:16:58.639Z,5.70
2019-03-08T01:18:04.147Z,6.30
2019-03-08T01:19:09.653Z,5.90
2019-03-08T01:20:15.167Z,5.70
2019-03-08T01:21:20.671Z,8.00
2019-03-08T01:22:26.178Z,5.90
2019-03-08T01:23:31.701Z,7.00
2019-03-08T01:24:37.196Z,5.00
2019-03-08T01:25:42.711Z,6.50
2019-03-08T01:26:48.219Z,6.90
2019-03-08T01:27:53.717Z,5.90
2019-03-08T01:28:59.236Z,6.00
2019-03-08T01:30:04.739Z,7.90
2019-03-08T01:31:10.252Z,7.00
2019-03-08T01:32:15.756Z,6.20
2019-03-08T01:33:21.267Z,8.10
2019-03-08T01:34:26.782Z,7.70
2019-03-08T01:35:32.281Z,6.50
2019-03-08T01:36:37.791Z,6.20
2019-03-08T01:37:43.300Z,6.00
2019-03-08T01:38:48.802Z,7.80
2019-03-08T01:39:54.312Z,6.70
2019-03-08T01:40:59.825Z,5.20
2019-03-08T01:42:05.335Z,7.10
2019-03-08T01:43:10.841Z,6.40
2019-03-08T01:44:16.357Z,7.30
2019-03-08T01:45:21.858Z,6.00
2019-03-08T01:46:27.365Z,6.80
2019-03-08T01:47:32.879Z,6.10
2019-03-08T01:48:38.383Z,7.50
2019-03-08T01:49:43.904Z,7.80
2019-03-08T01:50:49.404Z,7.30
2019-03-08T01:52:15.901Z,8.90
2019-03-08T01:53:00.428Z,6.90
2019-03-08T01:54:26.929Z,6.30
2019-03-08T01:55:11.441Z,9.30
2019-03-08T01:56:16.946Z,7.00
2019-03-08T01:57:22.460Z,7.80
2019-03-08T01:58:27.964Z,7.70
2019-03-08T01:59:33.472Z,6.70
2019-03-08T02:00:40.817Z,7.80
2019-03-08T02:01:44.490Z,6.60
2019-03-08T02:02:49.999Z,7.00
2019-03-08T02:03:55.510Z,6.20
2019-03-08T02:05:01.014Z,5.90
2019-03-08T02:06:06.520Z,7.80
2019-03-08T02:07:12.034Z,7.60
2019-03-08T02:08:17.540Z,6.20
2019-03-08T02:09:23.047Z,8.70
2019-03-08T02:10:28.559Z,7.00
2019-03-08T02:11:34.067Z,7.30
2019-03-08T02:12:39.576Z,8.00
2019-03-08T02:13:45.083Z,8.20
2019-03-08T02:14:50.595Z,7.40
2019-03-08T02:15:56.100Z,6.30
2019-03-08T02:17:01.610Z,7.90
2019-03-08T02:18:07.118Z,8.60
2019-03-08T02:19:12.626Z,7.40
2019-03-08T02:20:18.139Z,8.90
2019-03-08T02:21:23.643Z,7.50
2019-03-08T02:22:29.175Z,7.50
2019-03-08T02:23:34.665Z,7.70
2019-03-08T02:24:40.188Z,5.80
2019-03-08T02:25:45.809Z,7.20
2019-03-08T02:26:51.186Z,8.10
2019-03-08T02:27:56.699Z,7.80
2019-03-08T02:29:02.205Z,8.90
2019-03-08T02:30:07.715Z,6.10
2019-03-08T02:31:13.223Z,5.90
2019-03-08T02:32:18.731Z,6.70
2019-03-08T02:33:24.241Z,6.80
2019-03-08T02:34:29.747Z,7.00
2019-03-08T02:35:35.256Z,5.20
2019-03-08T02:36:40.764Z,6.80
2019-03-08T02:37:46.273Z,6.80
2019-03-08T02:38:51.782Z,8.00
2019-03-08T02:39:57.290Z,7.00
2019-03-08T02:41:02.795Z,6.20
2019-03-08T02:42:08.322Z,7.00
2019-03-08T02:43:13.815Z,7.60
2019-03-08T02:44:19.330Z,7.60
2019-03-08T02:45:24.833Z,7.40
2019-03-08T02:46:30.344Z,6.40
2019-03-08T02:47:35.913Z,6.50
2019-03-08T02:48:41.359Z,7.70
2019-03-08T02:49:46.870Z,5.20
2019-03-08T02:50:52.374Z,10.80
2019-03-08T02:51:57.885Z,6.00
2019-03-08T02:53:03.397Z,7.10
2019-03-08T02:54:08.904Z,7.10
2019-03-08T02:55:14.415Z,8.40
2019-03-08T02:56:19.921Z,8.10
2019-03-08T02:57:25.429Z,7.30
2019-03-08T02:58:30.941Z,8.90
2019-03-08T02:59:36.439Z,8.10
2019-03-08T03:00:41.963Z,6.30
2019-03-08T03:01:47.460Z,7.50
2019-03-08T03:02:52.969Z,7.50
2019-03-08T03:03:58.477Z,8.30
2019-03-08T03:05:03.988Z,8.40
2019-03-08T03:06:09.500Z,7.10
2019-03-08T03:07:15.004Z,10.40
2019-03-08T03:08:20.513Z,7.10
2019-03-08T03:09:26.024Z,5.70
2019-03-08T03:10:31.534Z,5.90
2019-03-08T03:11:37.040Z,5.70
2019-03-08T03:12:42.555Z,5.70
2019-03-08T03:13:48.055Z,5.60
2019-03-08T03:14:53.565Z,5.00
2019-03-08T03:15:59.077Z,6.70
2019-03-08T03:17:04.585Z,5.40
2019-03-08T03:18:10.094Z,5.50
2019-03-08T03:19:15.603Z,6.80
2019-03-08T03:20:21.113Z,4.90
2019-03-08T03:21:26.620Z,6.40
2019-03-08T03:22:32.125Z,6.90
2019-03-08T03:23:37.644Z,5.30
2019-03-08T03:24:43.146Z,3.70
2019-03-08T03:25:48.655Z,4.20
2019-03-08T03:26:54.161Z,3.30
2019-03-08T03:27:59.669Z,3.30
2019-03-08T03:29:05.179Z,3.20
2019-03-08T03:30:10.689Z,2.50
2019-03-08T03:31:16.195Z,3.30
2019-03-08T03:32:21.717Z,3.80
2019-03-08T03:33:27.212Z,2.80
2019-03-08T03:34:32.727Z,2.90
2019-03-08T03:35:38.228Z,2.90
2019-03-08T03:36:43.741Z,3.70
2019-03-08T03:37:49.248Z,4.30
2019-03-08T03:38:54.758Z,5.60
2019-03-08T03:40:00.353Z,4.10
2019-03-08T03:41:05.772Z,3.00
2019-03-08T03:42:11.289Z,4.00
2019-03-08T03:43:16.801Z,3.90
2019-03-08T03:44:22.300Z,3.70
2019-03-08T03:45:27.810Z,3.10
2019-03-08T03:46:33.316Z,4.10
2019-03-08T03:47:38.823Z,3.20
2019-03-08T03:48:44.328Z,3.20
2019-03-08T03:49:49.839Z,4.70
2019-03-08T03:50:55.349Z,3.90
2019-03-08T03:52:00.857Z,2.70
2019-03-08T03:53:06.367Z,5.30
2019-03-08T03:54:11.892Z,3.80
2019-03-08T03:55:17.400Z,4.40
2019-03-08T03:56:22.893Z,3.70
2019-03-08T03:57:28.398Z,3.60
2019-03-08T03:58:33.908Z,2.90
2019-03-08T03:59:39.418Z,3.80
2019-03-08T04:00:44.925Z,3.70
2019-03-08T04:01:50.430Z,2.90
2019-03-08T04:02:55.942Z,3.90
2019-03-08T04:04:01.448Z,5.00
2019-03-08T04:05:06.963Z,3.30
2019-03-08T04:06:12.466Z,4.50
2019-03-08T04:07:17.979Z,3.90
2019-03-08T04:08:23.484Z,4.90
2019-03-08T04:09:29.000Z,4.20
2019-03-08T04:10:34.508Z,4.80
2019-03-08T04:11:40.013Z,4.80
2019-03-08T04:12:45.518Z,5.50
2019-03-08T04:13:51.024Z,4.50
2019-03-08T04:14:56.536Z,5.70
2019-03-08T04:16:02.040Z,5.60
2019-03-08T04:17:07.554Z,5.80
2019-03-08T04:18:13.056Z,5.20
2019-03-08T04:19:18.567Z,6.30
2019-03-08T04:20:24.075Z,6.60
2019-03-08T04:21:29.587Z,7.00
2019-03-08T04:22:35.093Z,6.20
2019-03-08T04:23:40.601Z,6.30
2019-03-08T04:24:46.115Z,7.80
2019-03-08T04:25:51.617Z,7.00
2019-03-08T04:26:57.123Z,6.10
2019-03-08T04:28:02.637Z,9.00
2019-03-08T04:29:08.142Z,7.30
2019-03-08T04:30:13.653Z,6.10
2019-03-08T04:31:19.162Z,9.40
2019-03-08T04:32:24.672Z,7.00
2019-03-08T04:33:30.176Z,7.30
2019-03-08T04:34:35.689Z,9.50
2019-03-08T04:35:41.197Z,8.00
2019-03-08T04:36:46.704Z,8.80
2019-03-08T04:37:52.210Z,10.20
2019-03-08T04:38:57.721Z,8.60
2019-03-08T04:40:03.227Z,7.90
2019-03-08T04:41:08.740Z,6.90
2019-03-08T04:42:14.251Z,7.60
2019-03-08T04:43:19.756Z,6.80
2019-03-08T04:44:25.263Z,10.40
2019-03-08T04:45:30.769Z,8.30
2019-03-08T04:46:36.279Z,8.60
2019-03-08T04:47:41.799Z,8.20
2019-03-08T04:48:47.303Z,9.60
2019-03-08T04:49:52.802Z,7.50
2019-03-08T04:50:58.315Z,8.90
2019-03-08T04:52:03.821Z,7.70
2019-03-08T04:53:09.338Z,9.40
2019-03-08T04:54:14.840Z,7.50
2019-03-08T04:55:20.345Z,10.00
2019-03-08T04:56:25.866Z,8.90
2019-03-08T04:57:31.365Z,9.90
2019-03-08T04:58:36.872Z,11.00
2019-03-08T04:59:42.384Z,11.80
2019-03-08T05:00:47.893Z,7.80
2019-03-08T05:01:53.398Z,8.40
2019-03-08T05:02:58.908Z,9.00
2019-03-08T05:04:04.417Z,8.70
2019-03-08T05:05:09.927Z,10.50
2019-03-08T05:06:15.432Z,7.60
2019-03-08T05:07:20.943Z,7.60
2019-03-08T05:08:26.469Z,9.10
2019-03-08T05:09:31.955Z,12.60
2019-03-08T05:10:37.466Z,10.70
2019-03-08T05:11:42.979Z,11.20
2019-03-08T05:12:48.487Z,11.20
2019-03-08T05:13:53.994Z,9.60
2019-03-08T05:14:59.501Z,11.80
2019-03-08T05:16:05.013Z,11.40
2019-03-08T05:17:10.517Z,11.20
2019-03-08T05:18:16.028Z,11.20
2019-03-08T05:19:21.537Z,9.20
2019-03-08T05:20:27.053Z,10.20
2019-03-08T05:21:32.554Z,12.50
2019-03-08T05:22:38.065Z,10.30
2019-03-08T05:23:43.570Z,8.10
2019-03-08T05:24:49.098Z,10.40
2019-03-08T05:25:54.589Z,9.70
2019-03-08T05:27:00.098Z,11.90
2019-03-08T05:28:05.610Z,10.00
2019-03-08T05:29:11.118Z,12.70
2019-03-08T05:30:16.628Z,11.40
2019-03-08T05:31:22.170Z,12.10
2019-03-08T05:32:27.639Z,10.80
2019-03-08T05:33:33.147Z,12.10
2019-03-08T05:34:38.656Z,10.50
2019-03-08T05:35:44.176Z,8.50
2019-03-08T05:36:49.674Z,9.30
2019-03-08T05:37:55.189Z,10.80
2019-03-08T05:39:00.691Z,9.80
2019-03-08T05:40:06.201Z,9.20
2019-03-08T05:41:11.707Z,11.70
2019-03-08T05:42:17.218Z,11.00
2019-03-08T05:43:22.729Z,12.30
2019-03-08T05:44:28.242Z,9.50
2019-03-08T05:45:33.743Z,8.80
2019-03-08T05:46:39.257Z,10.50
2019-03-08T05:47:44.764Z,10.50
2019-03-08T05:48:50.267Z,9.80
2019-03-08T05:49:55.778Z,10.70
2019-03-08T05:51:01.293Z,11.40
2019-03-08T05:52:06.794Z,11.00
2019-03-08T05:53:12.444Z,10.90
2019-03-08T05:54:17.813Z,11.10
2019-03-08T05:55:23.320Z,11.10
2019-03-08T05:56:28.828Z,11.60
2019-03-08T05:57:34.338Z,12.20
2019-03-08T05:58:39.847Z,12.70
2019-03-08T05:59:45.525Z,12.00
2019-03-08T06:00:50.864Z,12.40
2019-03-08T06:01:56.376Z,11.90
2019-03-08T06:03:01.883Z,11.80
2019-03-08T06:04:07.389Z,11.90
2019-03-08T06:05:12.907Z,12.00
2019-03-08T06:06:18.408Z,10.00
2019-03-08T06:07:23.915Z,11.10
2019-03-08T06:08:29.423Z,12.50
2019-03-08T06:09:34.932Z,10.30
2019-03-08T06:10:40.452Z,10.40
2019-03-08T06:11:45.953Z,10.90
2019-03-08T06:12:51.460Z,10.00
2019-03-08T06:13:56.963Z,11.00
2019-03-08T06:15:02.475Z,12.00
2019-03-08T06:16:07.987Z,12.50
2019-03-08T06:17:13.494Z,12.70
2019-03-08T06:18:19.004Z,11.70
2019-03-08T06:19:24.512Z,11.20
2019-03-08T06:20:30.015Z,12.10
2019-03-08T06:21:35.528Z,11.50
2019-03-08T06:22:41.028Z,13.20
2019-03-08T06:23:46.546Z,12.30
2019-03-08T06:24:52.052Z,13.50
2019-03-08T06:25:57.562Z,13.00
2019-03-08T06:27:03.077Z,12.70
2019-03-08T06:28:08.581Z,12.50
2019-03-08T06:29:14.098Z,12.50
2019-03-08T06:30:19.609Z,11.20
2019-03-08T06:31:25.105Z,12.10
2019-03-08T06:32:30.620Z,11.50
2019-03-08T06:33:36.129Z,12.40
2019-03-08T06:34:41.634Z,11.90
2019-03-08T06:35:47.144Z,9.60
2019-03-08T06:36:52.649Z,12.70
2019-03-08T06:37:58.158Z,10.80
2019-03-08T06:39:03.666Z,13.10
2019-03-08T06:40:09.177Z,12.70
2019-03-08T06:41:14.686Z,14.90
2019-03-08T06:42:20.193Z,14.20
2019-03-08T06:43:25.705Z,12.30
2019-03-08T06:44:31.210Z,15.30
2019-03-08T06:45:36.717Z,13.00
2019-03-08T06:46:42.230Z,14.10
2019-03-08T06:47:47.739Z,12.10
2019-03-08T06:48:53.244Z,12.80
2019-03-08T06:49:58.758Z,15.90
2019-03-08T06:51:04.267Z,11.70
2019-03-08T06:52:09.773Z,13.60
2019-03-08T06:53:15.282Z,13.20
2019-03-08T06:54:20.794Z,10.70
2019-03-08T06:55:26.295Z,18.10
2019-03-08T06:56:31.804Z,13.30
2019-03-08T06:57:37.316Z,13.30
2019-03-08T06:58:42.826Z,12.70
2019-03-08T06:59:48.329Z,14.90
2019-03-08T07:00:53.844Z,14.80
2019-03-08T07:01:59.350Z,18.10
2019-03-08T07:03:04.873Z,14.10
2019-03-08T07:04:10.365Z,13.90
2019-03-08T07:05:15.879Z,17.00
2019-03-08T07:06:21.389Z,11.80
2019-03-08T07:07:26.894Z,13.30
2019-03-08T07:08:32.405Z,13.70
2019-03-08T07:09:37.912Z,18.30
2019-03-08T07:10:43.423Z,15.20
2019-03-08T07:11:48.931Z,18.60
2019-03-08T07:13:02.898Z,14.80
2019-03-08T07:13:59.949Z,15.30
2019-03-08T07:15:05.479Z,15.20
2019-03-08T07:16:13.278Z,15.20
2019-03-08T07:17:16.479Z,15.50
2019-03-08T07:18:21.985Z,15.10
2019-03-08T07:19:27.493Z,16.50
2019-03-08T07:20:33.002Z,15.80
2019-03-08T07:21:38.511Z,18.40
2019-03-08T07:22:44.018Z,12.70
2019-03-08T07:23:49.526Z,14.50
2019-03-08T07:24:55.038Z,15.10
2019-03-08T07:26:00.556Z,13.10
2019-03-08T07:27:06.054Z,19.60
2019-03-08T07:28:11.564Z,18.30
2019-03-08T07:29:17.074Z,19.30
2019-03-08T07:30:22.577Z,17.70
2019-03-08T07:31:28.085Z,15.30
2019-03-08T07:32:33.599Z,15.50
2019-03-08T07:33:39.109Z,17.50
2019-03-08T07:34:44.616Z,18.60
2019-03-08T07:35:50.134Z,15.30
2019-03-08T07:36:55.636Z,21.40
2019-03-08T07:38:01.144Z,18.30
2019-03-08T07:39:06.660Z,19.20
2019-03-08T07:40:12.159Z,16.10
2019-03-08T07:41:17.668Z,16.10
2019-03-08T07:42:23.178Z,19.60
2019-03-08T07:43:28.688Z,17.20
2019-03-08T07:44:34.191Z,19.00
2019-03-08T07:45:39.710Z,21.40
2019-03-08T07:46:45.217Z,15.70
2019-03-08T07:47:50.722Z,18.90
2019-03-08T07:48:56.230Z,17.00
2019-03-08T07:50:01.746Z,16.00
2019-03-08T07:51:07.244Z,18.00
2019-03-08T07:52:12.766Z,20.20
2019-03-08T07:53:18.253Z,19.30
2019-03-08T07:54:23.787Z,18.10
2019-03-08T07:55:29.289Z,15.30
2019-03-08T07:56:34.799Z,17.20
2019-03-08T07:57:40.302Z,23.40
2019-03-08T07:58:45.807Z,21.20
2019-03-08T07:59:53.959Z,18.60
2019-03-08T08:00:56.828Z,16.50
2019-03-08T08:02:02.336Z,17.30
2019-03-08T08:03:07.849Z,19.90
2019-03-08T08:04:13.359Z,20.90
2019-03-08T08:05:18.865Z,18.10
2019-03-08T08:06:24.388Z,18.00
2019-03-08T08:07:29.880Z,18.90
2019-03-08T08:08:35.392Z,17.40
2019-03-08T08:09:40.902Z,15.50
2019-03-08T08:10:46.406Z,21.30
2019-03-08T08:11:51.917Z,21.40
2019-03-08T08:12:57.446Z,20.00
2019-03-08T08:14:02.937Z,21.40
2019-03-08T08:15:08.446Z,20.90
2019-03-08T08:16:13.954Z,18.60
2019-03-08T08:17:19.478Z,17.60
2019-03-08T08:18:24.973Z,19.90
2019-03-08T08:19:30.487Z,18.70
2019-03-08T08:20:35.992Z,15.20
2019-03-08T08:21:41.504Z,21.70
2019-03-08T08:22:47.007Z,18.00
2019-03-08T08:23:52.524Z,18.60
2019-03-08T08:24:58.029Z,19.10
2019-03-08T08:26:03.534Z,18.50
2019-03-08T08:27:09.045Z,17.70
2019-03-08T08:28:14.569Z,19.70
2019-03-08T08:29:20.062Z,21.70
2019-03-08T08:30:25.572Z,23.90
2019-03-08T08:31:31.083Z,17.80
2019-03-08T08:32:36.596Z,22.20
2019-03-08T08:33:42.101Z,22.70
2019-03-08T08:34:47.613Z,20.60
2019-03-08T08:35:53.117Z,19.60
2019-03-08T08:36:58.627Z,16.80
2019-03-08T08:38:04.139Z,19.10
2019-03-08T08:39:09.650Z,18.00
2019-03-08T08:40:15.153Z,18.60
2019-03-08T08:41:20.669Z,16.00
2019-03-08T08:42:26.193Z,19.00
2019-03-08T08:43:31.683Z,18.20
2019-03-08T08:44:37.190Z,19.10
2019-03-08T08:45:42.760Z,18.90
2019-03-08T08:46:48.213Z,18.50
2019-03-08T08:47:53.717Z,20.20
2019-03-08T08:48:59.238Z,18.10
2019-03-08T08:50:04.739Z,18.70
2019-03-08T08:51:10.246Z,16.70
2019-03-08T08:52:15.758Z,17.40
2019-03-08T08:53:21.268Z,17.70
2019-03-08T08:54:26.781Z,16.20
2019-03-08T08:55:32.287Z,17.10
2019-03-08T08:56:37.797Z,16.90
2019-03-08T08:57:43.306Z,17.70
2019-03-08T08:58:48.812Z,15.90
2019-03-08T08:59:54.324Z,18.30
2019-03-08T09:00:59.831Z,17.10
2019-03-08T09:02:05.344Z,17.10
2019-03-08T09:03:10.868Z,17.10
2019-03-08T09:04:16.361Z,18.70
2019-03-08T09:05:21.878Z,18.90
2019-03-08T09:06:27.381Z,15.80
2019-03-08T09:07:32.888Z,18.50
2019-03-08T09:08:38.398Z,18.00
2019-03-08T09:09:43.916Z,16.00
2019-03-08T09:10:49.426Z,18.20
2019-03-08T09:11:54.927Z,18.80
2019-03-08T09:13:00.438Z,17.10
2019-03-08T09:14:05.952Z,18.00
2019-03-08T09:15:11.463Z,15.70
2019-03-08T09:16:16.973Z,18.30
2019-03-08T09:17:22.477Z,15.70
2019-03-08T09:18:27.980Z,17.40
2019-03-08T09:19:33.493Z,21.20
2019-03-08T09:20:39.010Z,19.60
2019-03-08T09:21:44.514Z,18.90
2019-03-08T09:22:50.025Z,17.30
2019-03-08T09:23:55.533Z,15.50
2019-03-08T09:25:01.043Z,15.00
2019-03-08T09:26:06.550Z,16.40
2019-03-08T09:27:12.068Z,17.20
2019-03-08T09:28:17.573Z,15.10
2019-03-08T09:29:23.103Z,18.80
2019-03-08T09:30:28.587Z,17.60
2019-03-08T09:31:34.100Z,18.10
2019-03-08T09:32:39.611Z,18.50
2019-03-08T09:33:45.118Z,20.70
2019-03-08T09:34:50.631Z,18.60
2019-03-08T09:35:56.140Z,13.40
2019-03-08T09:37:01.655Z,15.80
2019-03-08T09:38:07.164Z,16.90
2019-03-08T09:39:12.674Z,17.00
2019-03-08T09:40:18.180Z,15.30
2019-03-08T09:41:23.689Z,18.10
2019-03-08T09:42:29.207Z,15.90
2019-03-08T09:43:34.708Z,16.80
2019-03-08T09:44:40.215Z,13.00
2019-03-08T09:45:45.731Z,17.10
2019-03-08T09:46:51.269Z,15.50
2019-03-08T09:47:56.747Z,12.30
2019-03-08T09:49:02.255Z,16.70
2019-03-08T09:50:07.766Z,19.30
2019-03-08T09:51:13.273Z,17.00
2019-03-08T09:52:18.785Z,16.60
2019-03-08T09:53:24.294Z,17.90
2019-03-08T09:54:29.804Z,17.90
2019-03-08T09:55:35.331Z,18.10
2019-03-08T09:56:40.826Z,18.10
2019-03-08T09:57:46.334Z,17.20
2019-03-08T09:58:51.852Z,15.30
2019-03-08T09:59:57.349Z,16.50
2019-03-08T10:01:02.864Z,15.50
2019-03-08T10:02:08.380Z,15.00
2019-03-08T10:03:13.883Z,16.20
2019-03-08T10:04:19.393Z,15.10
2019-03-08T10:05:24.902Z,17.10
2019-03-08T10:06:30.413Z,13.30
2019-03-08T10:07:35.922Z,13.50
2019-03-08T10:08:41.433Z,15.20
2019-03-08T10:09:46.940Z,17.60
2019-03-08T10:10:52.450Z,14.20
2019-03-08T10:11:57.978Z,15.70
2019-03-08T10:13:03.471Z,14.10
2019-03-08T10:14:08.981Z,14.80
2019-03-08T10:15:14.494Z,13.50
2019-03-08T10:16:20.010Z,12.30
2019-03-08T10:17:25.512Z,12.70
2019-03-08T10:18:31.022Z,11.70
2019-03-08T10:19:36.534Z,13.10
2019-03-08T10:20:42.044Z,12.90
2019-03-08T10:21:47.555Z,14.30
2019-03-08T10:22:53.060Z,12.90
2019-03-08T10:23:58.585Z,12.10
2019-03-08T10:25:04.090Z,11.30
2019-03-08T10:26:09.595Z,12.40
2019-03-08T10:27:15.104Z,13.80
2019-03-08T10:28:20.614Z,12.30
2019-03-08T10:29:26.124Z,13.70
2019-03-08T10:30:32.033Z,13.30
2019-03-08T10:31:37.161Z,14.40
2019-03-08T10:32:42.658Z,14.30
2019-03-08T10:33:48.165Z,12.70
2019-03-08T10:34:53.676Z,14.90
2019-03-08T10:35:59.188Z,12.40
2019-03-08T10:37:04.699Z,15.20
2019-03-08T10:38:10.207Z,15.90
2019-03-08T10:39:15.719Z,12.60
2019-03-08T10:40:21.235Z,12.70
2019-03-08T10:41:26.741Z,13.80
2019-03-08T10:42:32.249Z,16.60
2019-03-08T10:43:37.780Z,16.00
2019-03-08T10:44:43.276Z,13.70
2019-03-08T10:45:48.784Z,12.10
2019-03-08T10:46:54.299Z,12.60
2019-03-08T10:47:59.800Z,13.80
2019-03-08T10:49:05.315Z,14.20
2019-03-08T10:50:10.825Z,14.20
2019-03-08T10:51:16.331Z,16.00
2019-03-08T10:52:21.843Z,12.30
2019-03-08T10:53:27.353Z,10.60
2019-03-08T10:54:32.865Z,10.70
2019-03-08T10:55:38.373Z,12.00
2019-03-08T10:56:43.902Z,10.90
2019-03-08T10:57:49.393Z,9.80
2019-03-08T10:58:55.183Z,10.30
2019-03-08T11:00:00.415Z,10.80
2019-03-08T11:01:05.927Z,8.80
2019-03-08T11:02:11.433Z,9.20
2019-03-08T11:03:16.950Z,10.20
2019-03-08T11:04:22.455Z,10.80
2019-03-08T11:05:27.966Z,10.80
2019-03-08T11:06:33.476Z,12.10
2019-03-08T11:07:38.988Z,13.90
2019-03-08T11:08:44.498Z,13.60
2019-03-08T11:09:50.005Z,12.20
2019-03-08T11:10:55.519Z,10.90
2019-03-08T11:12:01.024Z,11.10
2019-03-08T11:13:06.541Z,11.20
2019-03-08T11:14:12.044Z,12.90
2019-03-08T11:15:24.187Z,15.90
2019-03-08T11:16:24.962Z,11.30
2019-03-08T11:17:28.573Z,13.40
2019-03-08T11:18:34.082Z,11.90
2019-03-08T11:19:39.602Z,13.30
2019-03-08T11:20:46.438Z,10.80
2019-03-08T11:21:50.614Z,13.80
2019-03-08T11:22:56.127Z,12.80
2019-03-08T11:24:01.639Z,13.20
2019-03-08T11:25:08.417Z,11.10
2019-03-08T11:26:12.651Z,13.00
2019-03-08T11:27:18.160Z,14.50
2019-03-08T11:28:23.675Z,12.00
2019-03-08T11:29:29.189Z,10.80
2019-03-08T11:30:34.706Z,13.00
2019-03-08T11:31:40.238Z,10.90
2019-03-08T11:32:46.360Z,10.70
2019-03-08T11:33:51.229Z,12.10
2019-03-08T11:34:56.734Z,12.60
2019-03-08T11:36:02.238Z,12.70
2019-03-08T11:37:07.747Z,12.10
2019-03-08T11:38:13.259Z,14.10
2019-03-08T11:39:18.769Z,11.30
2019-03-08T11:40:24.279Z,11.60
2019-03-08T11:41:29.789Z,11.40
2019-03-08T11:42:35.302Z,9.00
2019-03-08T11:43:40.810Z,11.00
2019-03-08T11:44:46.335Z,9.30
2019-03-08T11:45:51.825Z,11.10
2019-03-08T11:46:57.346Z,10.50
2019-03-08T11:48:02.847Z,10.80
2019-03-08T11:49:08.376Z,11.20
2019-03-08T11:50:13.871Z,8.80
2019-03-08T11:51:19.377Z,10.00
2019-03-08T11:52:24.900Z,11.60
2019-03-08T11:53:30.398Z,11.20
2019-03-08T11:54:40.799Z,11.00
2019-03-08T11:55:41.416Z,13.00
2019-03-08T11:56:55.696Z,10.40
2019-03-08T11:57:52.443Z,10.50
2019-03-08T11:58:57.947Z,12.50
2019-03-08T12:00:03.455Z,9.70
2019-03-08T12:01:08.963Z,8.80
2019-03-08T12:02:14.477Z,13.50
2019-03-08T12:03:19.992Z,10.60
2019-03-08T12:04:25.526Z,10.50
2019-03-08T12:05:31.010Z,10.80
2019-03-08T12:06:36.513Z,10.60
2019-03-08T12:07:42.023Z,9.00
2019-03-08T12:08:47.542Z,8.70
2019-03-08T12:09:53.045Z,11.20
2019-03-08T12:10:58.552Z,11.20
2019-03-08T12:12:04.061Z,10.30
2019-03-08T12:13:09.572Z,8.90
2019-03-08T12:14:15.086Z,11.30
2019-03-08T12:15:20.591Z,10.00
2019-03-08T12:16:26.103Z,11.00
2019-03-08T12:17:31.617Z,10.30
2019-03-08T12:18:37.124Z,11.60
2019-03-08T12:19:42.637Z,11.40
2019-03-08T12:20:48.149Z,10.10
2019-03-08T12:21:53.659Z,12.30
2019-03-08T12:22:59.170Z,11.60
2019-03-08T12:24:04.681Z,8.60
2019-03-08T12:25:10.192Z,12.30
2019-03-08T12:26:15.710Z,12.00
2019-03-08T12:27:21.211Z,12.60
2019-03-08T12:28:26.722Z,10.30
2019-03-08T12:29:32.233Z,11.80
2019-03-08T12:30:37.764Z,11.60
2019-03-08T12:31:43.255Z,11.70
2019-03-08T12:32:48.766Z,14.40
2019-03-08T12:33:54.279Z,9.80
2019-03-08T12:34:59.797Z,11.60
2019-03-08T12:36:05.307Z,10.90
2019-03-08T12:37:10.822Z,9.50
2019-03-08T12:38:16.363Z,13.00
2019-03-08T12:39:21.831Z,11.10
2019-03-08T12:40:27.350Z,8.00
2019-03-08T12:41:32.889Z,9.60
2019-03-08T12:42:38.380Z,9.00
2019-03-08T12:43:45.091Z,8.00
2019-03-08T12:44:49.402Z,9.70
2019-03-08T12:45:54.923Z,11.20
2019-03-08T12:47:00.426Z,11.80
2019-03-08T12:48:05.946Z,10.10
2019-03-08T12:49:11.456Z,10.10
2019-03-08T12:50:16.964Z,12.10
2019-03-08T12:51:22.495Z,10.00
2019-03-08T12:52:28.027Z,8.90
2019-03-08T12:53:33.520Z,9.70
2019-03-08T12:54:39.059Z,8.40
2019-03-08T12:55:44.559Z,9.40
2019-03-08T12:56:50.076Z,11.00
2019-03-08T12:57:55.595Z,8.40
2019-03-08T12:59:01.111Z,9.90
2019-03-08T13:00:06.630Z,11.00
2019-03-08T13:01:12.182Z,10.30
2019-03-08T13:02:17.687Z,10.10
2019-03-08T13:03:23.201Z,10.30
2019-03-08T13:04:28.736Z,10.50
2019-03-08T13:05:34.240Z,9.70
2019-03-08T13:06:39.753Z,9.40
2019-03-08T13:07:45.271Z,9.50
2019-03-08T13:08:50.789Z,10.40
2019-03-08T13:09:56.305Z,10.80
2019-03-08T13:11:01.829Z,8.60
2019-03-08T13:12:07.343Z,10.90
2019-03-08T13:13:13.129Z,8.70
2019-03-08T13:14:18.382Z,8.50
2019-03-08T13:15:23.914Z,12.50
2019-03-08T13:16:29.424Z,8.10
2019-03-08T13:17:34.945Z,10.50
2019-03-08T13:18:40.478Z,8.50
2019-03-08T13:19:45.991Z,11.00
2019-03-08T13:20:51.515Z,12.10
2019-03-08T13:21:57.031Z,9.60
2019-03-08T13:23:02.558Z,11.00
2019-03-08T13:24:08.069Z,8.30
2019-03-08T13:25:13.594Z,8.60
2019-03-08T13:26:19.119Z,9.40
2019-03-08T13:27:24.629Z,9.30
2019-03-08T13:28:30.174Z,8.70
2019-03-08T13:29:35.670Z,10.20
2019-03-08T13:30:41.186Z,8.60
2019-03-08T13:31:46.704Z,9.20
2019-03-08T13:32:52.230Z,10.30
2019-03-08T13:33:57.751Z,7.00
2019-03-08T13:35:03.257Z,10.70
2019-03-08T13:36:08.768Z,8.50
2019-03-08T13:37:14.299Z,8.20
2019-03-08T13:38:19.806Z,8.20
2019-03-08T13:39:25.317Z,7.50
2019-03-08T13:40:30.835Z,7.80
2019-03-08T13:41:36.352Z,7.90
2019-03-08T13:42:41.866Z,9.30
2019-03-08T13:43:47.379Z,9.00
2019-03-08T13:44:52.895Z,9.80
2019-03-08T13:45:58.481Z,10.00
2019-03-08T13:47:03.929Z,6.80
2019-03-08T13:48:09.438Z,6.70
2019-03-08T13:49:14.958Z,8.00
2019-03-08T13:50:20.470Z,8.10
2019-03-08T13:51:26.021Z,8.00
2019-03-08T13:52:32.360Z,6.90
2019-03-08T13:53:37.016Z,7.60
2019-03-08T13:54:42.544Z,5.70
2019-03-08T13:55:48.051Z,5.30
2019-03-08T13:56:53.580Z,10.00
2019-03-08T13:57:59.104Z,6.30
2019-03-08T13:59:04.621Z,7.50
2019-03-08T14:00:10.133Z,9.50
2019-03-08T14:01:15.653Z,6.00
2019-03-08T14:02:21.173Z,5.60
2019-03-08T14:03:26.695Z,8.80
2019-03-08T14:04:32.216Z,6.40
2019-03-08T14:05:37.754Z,8.40
2019-03-08T14:06:43.267Z,6.00
2019-03-08T14:07:48.780Z,8.40
2019-03-08T14:08:54.309Z,6.40
2019-03-08T14:09:59.822Z,7.00
2019-03-08T14:11:05.343Z,6.90
2019-03-08T14:12:10.862Z,6.70
2019-03-08T14:13:16.377Z,6.80
2019-03-08T14:14:21.897Z,7.90
2019-03-08T14:15:27.425Z,5.50
2019-03-08T14:16:32.936Z,7.10